Latest Coastal Weather Observations for Yanakie

IDV60701

Issued at 2:15 am EDT Friday 31 October 2014 (issued every 10 minutes, with the page automatically refreshed every 10 minutes)

About coastal observations | Map of coastal stations | Coastal observations for VIC | Marine services | Other Formats
Station Details ID: 085301 Name: YANAKIE Lat: -38.81 Lon: 146.19 Height: 13.3 m
Data from the previous 72 hours. | See also: Recent months at Yanakie
Date/Time
EDT
Temp

°C
Wind Pressure Rain
since 9am
mm
Weather Cloud Vis
km
Sea
Height
m
Swell
Dir
 
Speed
knots
Gust
knots
hPa Trend Height
m
Period
s
Dir
31/02:00am 6.7 N 2 3 1012.7 - 0.0 - - - - - - -
31/01:30am 7.4 N 2 3 1013.1 - 0.0 - - - - - - -
31/01:00am 7.5 N 2 2 1013.6 - 0.0 - - - - - - -
31/12:30am 7.5 N 1 1 1013.7 - 0.0 - - - - - - -
31/12:00am 8.2 N 2 2 1013.9 - 0.0 - - - - - - -
 
Date/Time
EDT
Temp

°C
Wind Pressure Rain
since 9am
mm
Weather Cloud Vis
km
Sea
Height
m
Swell
Dir
 
Speed
knots
Gust
knots
hPa Trend Height
m
Period
s
Dir
30/11:30pm 8.3 N 2 3 1014.0 - 0.0 - - - - - - -
30/11:00pm 8.3 N 2 3 1014.1 - 0.0 - - - - - - -
30/10:30pm 7.9 NNW 2 3 1014.0 - 0.0 - - - - - - -
30/10:00pm 8.8 NW 4 5 1014.0 - 0.0 - - - - - - -
30/09:30pm 8.7 WNW 4 5 1013.9 - 0.0 - - - - - - -
30/09:00pm 10.1 WNW 3 5 1014.0 - 0.0 - - - - - - -
30/08:30pm 10.8 W 5 6 1013.7 - 0.0 - - - - - - -
30/08:00pm 11.6 WSW 6 7 1013.6 - 0.0 - - - - - - -
30/07:30pm 12.9 WSW 7 9 1013.7 - 0.0 - - - - - - -
30/07:00pm 14.1 SW 11 13 1013.3 - 0.0 - - - - - - -
30/06:30pm 14.9 WSW 11 15 1013.2 - 0.0 - - - - - - -
30/06:00pm 15.5 SW 12 16 1013.3 - 0.0 - - - - - - -
30/05:30pm 16.1 WSW 12 17 1013.1 - 0.0 - - - - - - -
30/05:00pm 16.2 WSW 14 19 1013.0 - 0.0 - - - - - - -
30/04:30pm 16.5 WSW 16 21 1013.2 - 0.0 - - - - - - -
30/04:00pm 16.7 W 16 22 1013.4 - 0.0 - - - - - - -
30/03:30pm 16.7 WSW 15 20 1013.3 - 0.0 - - - - - - -
30/03:00pm 16.3 WSW 16 21 1013.3 - 0.0 - - - - - - -
30/02:30pm 16.3 W 14 22 1013.4 - 0.0 - - - - - - -
30/02:00pm 15.7 WSW 14 18 1013.6 - 0.0 - - - - - - -
30/01:30pm 16.1 WSW 15 20 1013.7 - 0.0 - - - - - - -
30/01:00pm 16.1 W 16 22 1013.9 - 0.0 - - - - - - -
30/12:30pm 15.8 W 16 21 1014.0 - 0.0 - - - - - - -
30/12:00pm 15.9 W 15 21 1014.2 - 0.0 - - - - - - -
30/11:30am 15.7 W 14 20 1014.2 - 0.0 - - - - - - -
30/11:00am 14.9 W 12 15 1014.5 - 0.0 - - - - - - -
30/10:30am 14.2 W 13 17 1014.8 - 0.0 - - - - - - -
30/10:00am 14.1 W 12 15 1014.5 - 0.0 - - - - - - -
30/09:30am 12.7 WNW 6 8 1014.6 - 0.0 - - - - - - -
30/09:00am 12.8 W 7 10 1014.6 - 0.4 Recent precip. - - - - - -
30/08:30am 12.7 WNW 8 13 1014.5 - 0.2 - - - - - - -
30/08:00am 12.6 WNW 7 11 1014.3 - 0.2 - - - - - - -
30/07:30am 12.6 NW 6 10 1014.1 - 0.0 - - - - - - -
30/07:00am 12.3 NW 6 10 1013.8 - 0.0 - - - - - - -
30/06:30am 12.3 WNW 5 7 1013.5 - 0.0 - - - - - - -
30/06:00am 12.2 WNW 4 6 1013.3 - 0.0 - - - - - - -
30/05:30am 12.4 WNW 5 6 1013.6 - 0.0 - - - - - - -
30/05:00am 12.4 WNW 6 8 1013.6 - 0.0 - - - - - - -
30/04:30am 12.3 WNW 5 7 1013.6 - 0.0 - - - - - - -
30/04:00am 12.2 NW 5 8 1013.8 - 0.0 - - - - - - -
30/03:30am 12.2 WNW 4 6 1013.9 - 0.0 - - - - - - -
30/03:00am 12.2 NW 5 7 1013.9 - 0.0 - - - - - - -
30/02:30am 12.1 NW 4 5 1014.1 - 0.0 - - - - - - -
30/02:00am 12.1 NW 5 7 1014.5 - 0.0 - - - - - - -
30/01:30am 11.9 NW 5 7 1014.8 - 0.0 - - - - - - -
30/01:00am 11.4 NW 5 7 1015.2 - 0.0 - - - - - - -
30/12:30am 10.1 NW 4 5 1015.3 - 0.0 - - - - - - -
30/12:00am 9.6 WNW 3 4 1015.4 - 0.0 - - - - - - -
 
Date/Time
EDT
Temp

°C
Wind Pressure Rain
since 9am
mm
Weather Cloud Vis
km
Sea
Height
m
Swell
Dir
 
Speed
knots
Gust
knots
hPa Trend Height
m
Period
s
Dir
29/11:30pm 9.6 NNW 3 3 1015.3 - 0.0 - - - - - - -
29/11:00pm 9.1 NNW 3 4 1015.5 - 0.0 - - - - - - -
29/10:30pm 9.7 WNW 5 6 1015.8 - 0.0 - - - - - - -
29/10:00pm 10.5 WNW 6 7 1015.9 - 0.0 - - - - - - -
29/09:30pm 10.2 WNW 6 8 1016.0 - 0.0 - - - - - - -
29/09:00pm 10.4 WNW 5 6 1015.8 - 0.0 - - - - - - -
29/08:30pm 12.1 W 8 10 1015.5 - 0.0 - - - - - - -
29/08:00pm 12.4 WSW 8 11 1015.4 - 0.0 - - - - - - -
29/07:30pm 12.9 WSW 7 10 1015.4 - 0.0 - - - - - - -
29/07:00pm 14.0 WSW 9 12 1015.2 - 0.0 - - - - - - -
29/06:30pm 15.2 WSW 11 14 1015.1 - 0.0 - - - - - - -
29/06:00pm 15.7 WSW 13 17 1014.9 - 0.0 - - - - - - -
29/05:30pm 16.1 W 15 20 1014.8 - 0.0 - - - - - - -
29/05:00pm 16.4 W 17 22 1014.7 - 0.0 - - - - - - -
29/04:30pm 16.8 W 14 21 1014.8 - 0.0 - - - - - - -
29/04:00pm 16.5 W 17 24 1015.1 - 0.0 - - - - - - -
29/03:30pm 16.3 W 17 23 1015.3 - 0.0 - - - - - - -
29/03:00pm 16.0 W 19 25 1015.6 - 0.0 - - - - - - -
29/02:30pm 16.0 W 16 22 1015.9 - 0.0 - - - - - - -
29/02:00pm 15.9 W 16 22 1016.1 - 0.0 - - - - - - -
29/01:30pm 15.6 W 16 22 1016.4 - 0.0 - - - - - - -
29/01:00pm 15.2 W 16 24 1016.5 - 0.0 - - - - - - -
29/12:30pm 15.2 W 13 19 1016.7 - 0.0 - - - - - - -
29/12:00pm 14.4 WNW 12 19 1016.9 - 0.0 - - - - - - -
29/11:30am 14.5 W 12 18 1017.3 - 0.0 - - - - - - -
29/11:00am 13.4 WNW 11 16 1017.2 - 0.0 - - - - - - -
29/10:30am 13.9 NW 12 18 1017.4 - 0.0 - - - - - - -
29/10:00am 12.4 WNW 14 19 1017.4 - 0.0 - - - - - - -
29/09:30am 14.0 W 13 16 1017.3 - 0.0 - - - - - - -
29/09:00am 13.1 WNW 11 15 1017.3 - 1.0 - - - - - - -
29/08:30am 12.9 WNW 7 9 1017.4 - 1.0 - - - - - - -
29/08:00am 12.6 W 8 11 1017.1 - 1.0 - - - - - - -
29/07:30am 11.7 WNW 5 7 1017.1 - 1.0 - - - - - - -
29/07:00am 11.2 WNW 5 8 1016.9 - 1.0 - - - - - - -
29/06:30am 10.4 W 7 9 1016.6 - 1.0 - - - - - - -
29/06:00am 10.3 W 8 11 1016.2 - 1.0 - - - - - - -
29/05:30am 10.4 W 6 10 1016.0 - 1.0 - - - - - - -
29/05:00am 10.9 WNW 6 9 1015.8 - 1.0 - - - - - - -
29/04:30am 11.0 W 9 12 1015.6 - 1.0 - - - - - - -
29/04:00am 11.5 WSW 13 19 1015.5 - 1.0 - - - - - - -
29/03:30am 11.2 W 9 16 1015.3 - 1.0 - - - - - - -
29/03:00am 10.4 W 10 14 1015.2 - 1.0 - - - - - - -
29/02:30am 11.2 W 15 21 1015.0 - 1.0 - - - - - - -
29/02:00am 11.5 W 15 21 1015.1 - 1.0 - - - - - - -
29/01:30am 11.8 W 16 22 1015.2 - 1.0 - - - - - - -
29/01:00am 11.2 W 15 21 1015.3 - 1.0 - - - - - - -
29/12:30am 10.9 W 13 16 1015.5 - 1.0 - - - - - - -
29/12:00am 10.3 W 17 25 1015.4 - 1.0 - - - - - - -
 
Date/Time
EDT
Temp

°C
Wind Pressure Rain
since 9am
mm
Weather Cloud Vis
km
Sea
Height
m
Swell
Dir
 
Speed
knots
Gust
knots
hPa Trend Height
m
Period
s
Dir
28/11:48pm 10.5 W 18 28 1015.4 - 1.0 - - - - - - -
28/11:30pm 11.7 WSW 19 28 1015.1 - 1.0 - - - - - - -
28/11:00pm 12.1 W 19 25 1014.7 - 1.0 - - - - - - -
28/10:30pm 11.6 W 21 29 1014.5 - 1.0 - - - - - - -
28/10:20pm 11.9 WSW 20 31 1014.5 - 1.0 - - - - - - -
28/10:00pm 11.5 WSW 18 26 1014.5 - 1.0 - - - - - - -
28/09:30pm 12.1 W 20 28 1014.0 - 1.0 - - - - - - -
28/09:00pm 12.0 W 24 36 1013.8 - 1.0 - - - - - - -
28/08:50pm 12.0 W 23 33 1013.8 - 1.0 - - - - - - -
28/08:30pm 12.0 WSW 24 30 1013.6 - 1.0 - - - - - - -
28/08:00pm 11.9 W 23 33 1013.4 - 1.0 - - - - - - -
28/07:44pm 12.1 WSW 27 38 1013.1 - 1.0 - - - - - - -
28/07:30pm 12.4 WSW 28 36 1012.8 - 1.0 - - - - - - -
28/07:00pm 12.7 W 28 38 1012.5 - 1.0 - - - - - - -
28/06:51pm 12.9 WSW 26 37 1012.3 - 1.0 - - - - - - -
28/06:30pm 13.0 W 29 37 1012.0 - 1.0 - - - - - - -
28/06:00pm 13.8 W 26 39 1011.6 - 1.0 - - - - - - -
28/05:46pm 13.4 W 27 37 1011.4 - 1.0 - - - - - - -
28/05:30pm 14.0 W 27 36 1011.2 - 1.0 - - - - - - -
28/05:00pm 14.4 W 28 38 1011.2 - 1.0 - - - - - - -
28/04:31pm 13.5 W 28 39 1010.9 - 1.0 - - - - - - -
28/04:30pm 13.4 W 28 37 1011.0 - 1.0 - - - - - - -
28/04:01pm 14.5 W 27 38 1010.5 - 1.0 - - - - - - -
28/04:00pm 14.4 W 28 38 1010.4 - 1.0 - - - - - - -
28/03:30pm 13.9 W 29 41 1010.1 - 1.0 - - - - - - -
28/03:00pm 15.2 W 24 37 1009.9 - 1.0 - - - - - - -
28/02:30pm 14.2 W 26 40 1009.7 - 1.0 - - - - - - -
28/02:10pm 13.5 W 27 37 1009.7 - 1.0 - - - - - - -
28/02:00pm 14.3 W 29 38 1009.5 - 1.0 - - - - - - -
28/01:30pm 15.7 W 26 36 1009.3 - 1.0 - - - - - - -
28/01:00pm 14.5 W 26 36 1008.9 - 1.0 - - - - - - -
28/12:59pm 14.8 W 26 36 1008.9 - 1.0 - - - - - - -
28/12:30pm 14.2 W 23 33 1008.7 - 1.0 - - - - - - -
28/12:04pm 13.2 W 23 34 1008.5 - 1.0 - - - - - - -
28/12:00pm 12.7 W 25 34 1008.5 - 1.0 Recent precip. - - - - - -
28/11:31am 14.4 W 23 33 1008.3 - 1.0 - - - - - - -
28/11:30am 14.6 W 22 32 1008.3 - 1.0 - - - - - - -
28/11:02am 13.8 W 22 32 1008.1 - 0.8 - - - - - - -
28/11:00am 13.8 W 23 32 1008.1 - 0.8 - - - - - - -
28/10:30am 12.4 W 26 40 1007.7 - 0.8 - - - - - - -
28/10:00am 13.6 WNW 21 32 1006.6 - 0.4 - - - - - - -
28/09:34am 13.6 WNW 22 36 1006.7 - 0.4 - - - - - - -
28/09:30am 13.5 WNW 21 31 1006.9 - 0.4 - - - - - - -
28/09:22am 13.4 WNW 17 31 1006.9 - 0.4 - - - - - - -
28/09:00am 12.1 W 19 27 1007.1 - 8.8 Rain - - - - - -
28/08:30am 12.8 WNW 21 33 1006.4 - 8.6 - - - - - - -
28/08:04am 12.9 NW 24 35 1006.0 - 8.6 - - - - - - -
28/08:00am 12.8 NW 24 32 1006.0 - 8.6 - - - - - - -
28/07:30am 12.2 NW 16 23 1006.1 - 8.6 - - - - - - -
28/07:00am 11.2 NW 15 23 1006.5 - 8.6 - - - - - - -
28/06:30am 11.1 NW 16 22 1006.0 - 8.6 - - - - - - -
28/06:10am 11.8 NW 20 30 1006.0 - 8.6 - - - - - - -
28/06:00am 11.6 NW 18 25 1005.9 - 8.6 - - - - - - -
28/05:33am 11.4 NW 17 27 1006.2 - 8.6 - - - - - - -
28/05:30am 11.4 NW 18 27 1006.1 - 8.6 - - - - - - -
28/05:00am 10.7 NW 18 25 1006.0 - 8.6 - - - - - - -
28/04:30am 10.8 NW 17 25 1006.2 - 8.6 - - - - - - -
28/04:00am 10.6 WNW 17 25 1006.6 - 8.6 - - - - - - -
28/03:30am 10.8 NW 18 27 1006.8 - 8.6 - - - - - - -
28/03:24am 10.7 NW 16 27 1006.9 - 8.6 - - - - - - -
28/03:00am 10.7 WNW 16 23 1007.5 - 8.6 - - - - - - -
28/02:30am 10.6 WNW 16 22 1007.6 - 8.6 - - - - - - -

Other Formats:

Comma delimited format used in spreadsheet applications
http://www.bom.gov.au/fwo/IDV60701/IDV60701.94911.axf

JavaScript Object Notation format (JSON) in row-major order
http://www.bom.gov.au/fwo/IDV60701/IDV60701.94911.json